sensor_id;sensor_type;location;lat;lon;timestamp;temperature;humidity
24148;DHT22;12309;51.450;-2.624;2023-02-17T00:03:23;10.60;99.90
24148;DHT22;12309;51.450;-2.624;2023-02-17T00:05:49;10.60;99.90
24148;DHT22;12309;51.450;-2.624;2023-02-17T00:08:15;10.60;99.90
24148;DHT22;12309;51.450;-2.624;2023-02-17T00:10:41;10.60;99.90
24148;DHT22;12309;51.450;-2.624;2023-02-17T00:13:07;10.60;99.90
24148;DHT22;12309;51.450;-2.624;2023-02-17T00:15:32;10.60;99.90
24148;DHT22;12309;51.450;-2.624;2023-02-17T00:17:58;10.70;99.90
24148;DHT22;12309;51.450;-2.624;2023-02-17T00:20:23;10.60;99.90
24148;DHT22;12309;51.450;-2.624;2023-02-17T00:22:49;10.70;99.90
24148;DHT22;12309;51.450;-2.624;2023-02-17T00:25:15;10.60;99.90
24148;DHT22;12309;51.450;-2.624;2023-02-17T00:27:40;10.60;99.90
24148;DHT22;12309;51.450;-2.624;2023-02-17T00:30:06;10.50;99.90
24148;DHT22;12309;51.450;-2.624;2023-02-17T00:32:32;10.80;99.90
24148;DHT22;12309;51.450;-2.624;2023-02-17T00:34:58;10.70;99.90
24148;DHT22;12309;51.450;-2.624;2023-02-17T00:37:24;10.60;99.90
24148;DHT22;12309;51.450;-2.624;2023-02-17T00:39:50;10.60;99.90
24148;DHT22;12309;51.450;-2.624;2023-02-17T00:42:15;10.60;99.90
24148;DHT22;12309;51.450;-2.624;2023-02-17T00:44:41;10.60;99.90
24148;DHT22;12309;51.450;-2.624;2023-02-17T00:47:07;10.60;99.90
24148;DHT22;12309;51.450;-2.624;2023-02-17T00:49:32;10.40;99.90
24148;DHT22;12309;51.450;-2.624;2023-02-17T00:51:59;10.50;99.90
24148;DHT22;12309;51.450;-2.624;2023-02-17T00:54:28;10.60;99.90
24148;DHT22;12309;51.450;-2.624;2023-02-17T00:56:53;10.60;99.90
24148;DHT22;12309;51.450;-2.624;2023-02-17T00:59:19;10.40;99.90
24148;DHT22;12309;51.450;-2.624;2023-02-17T01:01:45;10.60;99.90
24148;DHT22;12309;51.450;-2.624;2023-02-17T01:04:11;10.60;99.90
24148;DHT22;12309;51.450;-2.624;2023-02-17T01:06:38;10.50;99.90
24148;DHT22;12309;51.450;-2.624;2023-02-17T01:09:05;10.30;99.90
24148;DHT22;12309;51.450;-2.624;2023-02-17T01:11:33;10.60;99.90
24148;DHT22;12309;51.450;-2.624;2023-02-17T01:14:01;10.60;99.90
24148;DHT22;12309;51.450;-2.624;2023-02-17T01:16:30;10.60;99.90
24148;DHT22;12309;51.450;-2.624;2023-02-17T01:19:00;10.40;99.90
24148;DHT22;12309;51.450;-2.624;2023-02-17T01:21:27;10.70;99.90
24148;DHT22;12309;51.450;-2.624;2023-02-17T01:23:56;10.50;99.90
24148;DHT22;12309;51.450;-2.624;2023-02-17T01:26:25;10.50;99.90
24148;DHT22;12309;51.450;-2.624;2023-02-17T01:28:51;10.60;99.90
24148;DHT22;12309;51.450;-2.624;2023-02-17T01:31:18;10.40;99.90
24148;DHT22;12309;51.450;-2.624;2023-02-17T01:33:44;10.50;99.90
24148;DHT22;12309;51.450;-2.624;2023-02-17T01:36:13;10.50;99.90
24148;DHT22;12309;51.450;-2.624;2023-02-17T01:38:39;10.50;99.90
24148;DHT22;12309;51.450;-2.624;2023-02-17T01:41:06;10.50;99.90
24148;DHT22;12309;51.450;-2.624;2023-02-17T01:43:31;10.50;99.90
24148;DHT22;12309;51.450;-2.624;2023-02-17T01:45:59;10.50;99.90
24148;DHT22;12309;51.450;-2.624;2023-02-17T01:48:29;10.10;99.90
24148;DHT22;12309;51.450;-2.624;2023-02-17T01:51:00;10.50;99.90
24148;DHT22;12309;51.450;-2.624;2023-02-17T01:53:32;10.50;99.90
24148;DHT22;12309;51.450;-2.624;2023-02-17T01:55:59;10.20;99.90
24148;DHT22;12309;51.450;-2.624;2023-02-17T01:58:27;10.40;99.90
24148;DHT22;12309;51.450;-2.624;2023-02-17T02:00:55;10.40;99.90
24148;DHT22;12309;51.450;-2.624;2023-02-17T02:03:22;10.40;99.90
24148;DHT22;12309;51.450;-2.624;2023-02-17T02:05:48;10.70;99.90
24148;DHT22;12309;51.450;-2.624;2023-02-17T02:08:14;10.40;99.90
24148;DHT22;12309;51.450;-2.624;2023-02-17T02:10:40;10.40;99.90
24148;DHT22;12309;51.450;-2.624;2023-02-17T02:13:06;10.40;99.90
24148;DHT22;12309;51.450;-2.624;2023-02-17T02:15:43;10.40;99.90
24148;DHT22;12309;51.450;-2.624;2023-02-17T02:25:43;10.20;99.90
24148;DHT22;12309;51.450;-2.624;2023-02-17T02:30:40;10.30;99.90
24148;DHT22;12309;51.450;-2.624;2023-02-17T02:36:16;10.30;99.90
24148;DHT22;12309;51.450;-2.624;2023-02-17T02:38:51;10.30;99.90
24148;DHT22;12309;51.450;-2.624;2023-02-17T02:41:38;10.30;99.90
24148;DHT22;12309;51.450;-2.624;2023-02-17T02:44:12;10.30;99.90
24148;DHT22;12309;51.450;-2.624;2023-02-17T02:46:38;10.30;99.90
24148;DHT22;12309;51.450;-2.624;2023-02-17T02:49:04;10.30;99.90
24148;DHT22;12309;51.450;-2.624;2023-02-17T02:52:11;10.30;99.90
24148;DHT22;12309;51.450;-2.624;2023-02-17T02:59:42;10.20;99.90
24148;DHT22;12309;51.450;-2.624;2023-02-17T03:05:25;10.20;99.90
24148;DHT22;12309;51.450;-2.624;2023-02-17T03:08:35;10.20;99.90
24148;DHT22;12309;51.450;-2.624;2023-02-17T03:11:03;10.20;99.90
24148;DHT22;12309;51.450;-2.624;2023-02-17T03:13:32;10.20;99.90
24148;DHT22;12309;51.450;-2.624;2023-02-17T03:15:58;10.20;99.90
24148;DHT22;12309;51.450;-2.624;2023-02-17T03:18:23;10.20;99.90
24148;DHT22;12309;51.450;-2.624;2023-02-17T03:20:54;10.20;99.90
24148;DHT22;12309;51.450;-2.624;2023-02-17T03:23:20;10.20;99.90
24148;DHT22;12309;51.450;-2.624;2023-02-17T03:25:46;10.20;99.90
24148;DHT22;12309;51.450;-2.624;2023-02-17T03:28:13;10.20;99.90
24148;DHT22;12309;51.450;-2.624;2023-02-17T03:30:39;10.00;99.90
24148;DHT22;12309;51.450;-2.624;2023-02-17T03:33:04;10.20;99.90
24148;DHT22;12309;51.450;-2.624;2023-02-17T03:40:22;10.20;99.90
24148;DHT22;12309;51.450;-2.624;2023-02-17T03:42:48;10.20;99.90
24148;DHT22;12309;51.450;-2.624;2023-02-17T03:45:14;10.20;99.90
24148;DHT22;12309;51.450;-2.624;2023-02-17T03:47:39;10.30;99.90
24148;DHT22;12309;51.450;-2.624;2023-02-17T03:50:06;10.30;99.90
24148;DHT22;12309;51.450;-2.624;2023-02-17T03:52:31;10.30;99.90
24148;DHT22;12309;51.450;-2.624;2023-02-17T03:54:57;10.30;99.90
24148;DHT22;12309;51.450;-2.624;2023-02-17T03:57:22;10.30;99.90
24148;DHT22;12309;51.450;-2.624;2023-02-17T03:59:48;10.40;99.90
24148;DHT22;12309;51.450;-2.624;2023-02-17T04:02:14;10.30;99.90
24148;DHT22;12309;51.450;-2.624;2023-02-17T04:04:39;10.30;99.90
24148;DHT22;12309;51.450;-2.624;2023-02-17T04:07:05;10.30;99.90
24148;DHT22;12309;51.450;-2.624;2023-02-17T04:09:30;10.30;99.90
24148;DHT22;12309;51.450;-2.624;2023-02-17T04:11:56;10.30;99.90
24148;DHT22;12309;51.450;-2.624;2023-02-17T04:14:22;10.70;99.90
24148;DHT22;12309;51.450;-2.624;2023-02-17T04:16:47;10.30;99.90
24148;DHT22;12309;51.450;-2.624;2023-02-17T04:19:13;10.20;99.90
24148;DHT22;12309;51.450;-2.624;2023-02-17T04:21:38;10.30;99.90
24148;DHT22;12309;51.450;-2.624;2023-02-17T04:24:04;10.30;99.90
24148;DHT22;12309;51.450;-2.624;2023-02-17T04:26:30;10.30;99.90
24148;DHT22;12309;51.450;-2.624;2023-02-17T04:28:56;10.30;99.90
24148;DHT22;12309;51.450;-2.624;2023-02-17T04:31:21;10.40;99.90
24148;DHT22;12309;51.450;-2.624;2023-02-17T04:33:47;10.40;99.90
24148;DHT22;12309;51.450;-2.624;2023-02-17T04:36:13;10.30;99.90
24148;DHT22;12309;51.450;-2.624;2023-02-17T04:38:39;10.40;99.90
24148;DHT22;12309;51.450;-2.624;2023-02-17T04:41:05;10.40;99.90
24148;DHT22;12309;51.450;-2.624;2023-02-17T04:43:31;10.30;99.90
24148;DHT22;12309;51.450;-2.624;2023-02-17T04:45:57;10.40;99.90
24148;DHT22;12309;51.450;-2.624;2023-02-17T04:48:23;10.40;99.90
24148;DHT22;12309;51.450;-2.624;2023-02-17T04:50:50;10.40;99.90
24148;DHT22;12309;51.450;-2.624;2023-02-17T04:53:16;10.40;99.90
24148;DHT22;12309;51.450;-2.624;2023-02-17T04:55:42;10.40;99.90
24148;DHT22;12309;51.450;-2.624;2023-02-17T04:58:07;10.40;99.90
24148;DHT22;12309;51.450;-2.624;2023-02-17T05:00:33;10.60;99.90
24148;DHT22;12309;51.450;-2.624;2023-02-17T05:02:59;10.60;99.90
24148;DHT22;12309;51.450;-2.624;2023-02-17T05:05:25;10.80;99.90
24148;DHT22;12309;51.450;-2.624;2023-02-17T05:07:51;10.70;99.90
24148;DHT22;12309;51.450;-2.624;2023-02-17T05:10:17;10.70;99.90
24148;DHT22;12309;51.450;-2.624;2023-02-17T05:12:43;10.70;99.90
24148;DHT22;12309;51.450;-2.624;2023-02-17T05:15:10;10.80;99.90
24148;DHT22;12309;51.450;-2.624;2023-02-17T05:17:36;10.80;99.90
24148;DHT22;12309;51.450;-2.624;2023-02-17T05:20:03;10.80;99.90
24148;DHT22;12309;51.450;-2.624;2023-02-17T05:22:28;10.80;99.90
24148;DHT22;12309;51.450;-2.624;2023-02-17T05:24:54;10.80;99.90
24148;DHT22;12309;51.450;-2.624;2023-02-17T05:27:20;10.80;99.90
24148;DHT22;12309;51.450;-2.624;2023-02-17T05:29:45;10.80;99.90
24148;DHT22;12309;51.450;-2.624;2023-02-17T05:32:11;10.90;99.90
24148;DHT22;12309;51.450;-2.624;2023-02-17T05:34:37;10.80;99.90
24148;DHT22;12309;51.450;-2.624;2023-02-17T05:37:03;10.90;99.90
24148;DHT22;12309;51.450;-2.624;2023-02-17T05:39:29;10.90;99.90
24148;DHT22;12309;51.450;-2.624;2023-02-17T05:41:55;10.80;99.90
24148;DHT22;12309;51.450;-2.624;2023-02-17T05:44:20;10.90;99.90
24148;DHT22;12309;51.450;-2.624;2023-02-17T05:46:46;10.70;99.90
24148;DHT22;12309;51.450;-2.624;2023-02-17T05:49:12;10.90;99.90
24148;DHT22;12309;51.450;-2.624;2023-02-17T05:51:38;10.90;99.90
24148;DHT22;12309;51.450;-2.624;2023-02-17T05:54:03;10.90;99.90
24148;DHT22;12309;51.450;-2.624;2023-02-17T05:56:30;10.90;99.90
24148;DHT22;12309;51.450;-2.624;2023-02-17T05:58:56;10.90;99.90
24148;DHT22;12309;51.450;-2.624;2023-02-17T06:01:22;11.20;99.90
24148;DHT22;12309;51.450;-2.624;2023-02-17T06:03:47;10.90;99.90
24148;DHT22;12309;51.450;-2.624;2023-02-17T06:06:13;10.90;99.90
24148;DHT22;12309;51.450;-2.624;2023-02-17T06:08:39;10.90;99.90
24148;DHT22;12309;51.450;-2.624;2023-02-17T06:11:05;10.90;99.90
24148;DHT22;12309;51.450;-2.624;2023-02-17T06:13:31;10.90;99.90
24148;DHT22;12309;51.450;-2.624;2023-02-17T06:15:57;10.90;99.90
24148;DHT22;12309;51.450;-2.624;2023-02-17T06:20:49;10.90;99.90
24148;DHT22;12309;51.450;-2.624;2023-02-17T06:25:41;10.80;99.90
24148;DHT22;12309;51.450;-2.624;2023-02-17T06:28:07;10.80;99.90
24148;DHT22;12309;51.450;-2.624;2023-02-17T06:30:32;10.80;99.90
24148;DHT22;12309;51.450;-2.624;2023-02-17T06:32:58;10.80;99.90
24148;DHT22;12309;51.450;-2.624;2023-02-17T06:35:25;10.90;99.90
24148;DHT22;12309;51.450;-2.624;2023-02-17T06:37:50;10.80;99.90
24148;DHT22;12309;51.450;-2.624;2023-02-17T06:40:16;10.90;99.90
24148;DHT22;12309;51.450;-2.624;2023-02-17T06:42:42;10.80;99.90
24148;DHT22;12309;51.450;-2.624;2023-02-17T06:45:08;10.80;99.90
24148;DHT22;12309;51.450;-2.624;2023-02-17T06:47:34;10.80;99.90
24148;DHT22;12309;51.450;-2.624;2023-02-17T06:50:00;10.80;99.90
24148;DHT22;12309;51.450;-2.624;2023-02-17T06:52:26;10.80;99.90
24148;DHT22;12309;51.450;-2.624;2023-02-17T06:54:51;10.50;99.90
24148;DHT22;12309;51.450;-2.624;2023-02-17T06:57:17;10.80;99.90
24148;DHT22;12309;51.450;-2.624;2023-02-17T06:59:43;10.80;99.90
24148;DHT22;12309;51.450;-2.624;2023-02-17T07:02:13;10.80;99.90
24148;DHT22;12309;51.450;-2.624;2023-02-17T07:04:42;10.80;99.90
24148;DHT22;12309;51.450;-2.624;2023-02-17T07:07:09;10.70;99.90
24148;DHT22;12309;51.450;-2.624;2023-02-17T07:09:34;10.80;99.90
24148;DHT22;12309;51.450;-2.624;2023-02-17T07:12:01;10.70;99.90
24148;DHT22;12309;51.450;-2.624;2023-02-17T07:14:27;10.70;99.90
24148;DHT22;12309;51.450;-2.624;2023-02-17T07:16:52;10.70;99.90
24148;DHT22;12309;51.450;-2.624;2023-02-17T07:19:18;10.70;99.90
24148;DHT22;12309;51.450;-2.624;2023-02-17T07:21:44;10.70;99.90
24148;DHT22;12309;51.450;-2.624;2023-02-17T07:24:10;10.70;99.90
24148;DHT22;12309;51.450;-2.624;2023-02-17T07:26:37;10.60;99.90
24148;DHT22;12309;51.450;-2.624;2023-02-17T07:29:04;10.70;99.90
24148;DHT22;12309;51.450;-2.624;2023-02-17T07:31:30;10.70;99.90
24148;DHT22;12309;51.450;-2.624;2023-02-17T07:33:56;10.70;99.90
24148;DHT22;12309;51.450;-2.624;2023-02-17T07:36:22;10.70;99.90
24148;DHT22;12309;51.450;-2.624;2023-02-17T07:38:48;10.70;99.90
24148;DHT22;12309;51.450;-2.624;2023-02-17T07:41:19;10.90;99.90
24148;DHT22;12309;51.450;-2.624;2023-02-17T07:43:45;10.70;99.90
24148;DHT22;12309;51.450;-2.624;2023-02-17T07:46:12;10.70;99.90
24148;DHT22;12309;51.450;-2.624;2023-02-17T07:48:38;10.80;99.90
24148;DHT22;12309;51.450;-2.624;2023-02-17T07:51:13;10.80;99.90
24148;DHT22;12309;51.450;-2.624;2023-02-17T07:53:39;10.70;99.90
24148;DHT22;12309;51.450;-2.624;2023-02-17T07:56:07;10.70;99.90
24148;DHT22;12309;51.450;-2.624;2023-02-17T07:58:34;10.70;99.90
24148;DHT22;12309;51.450;-2.624;2023-02-17T08:01:15;10.80;99.90
24148;DHT22;12309;51.450;-2.624;2023-02-17T08:03:41;10.70;99.90
24148;DHT22;12309;51.450;-2.624;2023-02-17T08:06:12;10.70;99.90
24148;DHT22;12309;51.450;-2.624;2023-02-17T08:08:39;10.80;99.90
24148;DHT22;12309;51.450;-2.624;2023-02-17T08:11:23;10.80;99.90
24148;DHT22;12309;51.450;-2.624;2023-02-17T08:14:07;10.70;99.90
24148;DHT22;12309;51.450;-2.624;2023-02-17T08:16:33;10.80;99.90
24148;DHT22;12309;51.450;-2.624;2023-02-17T08:18:59;10.80;99.90
24148;DHT22;12309;51.450;-2.624;2023-02-17T08:21:26;10.80;99.90
24148;DHT22;12309;51.450;-2.624;2023-02-17T08:23:52;10.90;99.90
24148;DHT22;12309;51.450;-2.624;2023-02-17T08:26:18;10.90;99.90
24148;DHT22;12309;51.450;-2.624;2023-02-17T08:28:44;10.80;99.90
24148;DHT22;12309;51.450;-2.624;2023-02-17T08:31:22;10.90;99.90
24148;DHT22;12309;51.450;-2.624;2023-02-17T08:33:49;10.90;99.90
24148;DHT22;12309;51.450;-2.624;2023-02-17T08:36:15;10.90;99.90
24148;DHT22;12309;51.450;-2.624;2023-02-17T08:38:41;11.00;99.90
24148;DHT22;12309;51.450;-2.624;2023-02-17T08:41:24;10.90;99.90
24148;DHT22;12309;51.450;-2.624;2023-02-17T08:43:50;11.00;99.90
24148;DHT22;12309;51.450;-2.624;2023-02-17T08:46:17;10.90;99.90
24148;DHT22;12309;51.450;-2.624;2023-02-17T08:48:43;11.00;99.90
24148;DHT22;12309;51.450;-2.624;2023-02-17T08:51:14;11.00;99.90
24148;DHT22;12309;51.450;-2.624;2023-02-17T08:53:41;10.90;99.90
24148;DHT22;12309;51.450;-2.624;2023-02-17T08:56:07;11.00;99.90
24148;DHT22;12309;51.450;-2.624;2023-02-17T08:58:33;10.90;99.90
24148;DHT22;12309;51.450;-2.624;2023-02-17T09:00:59;11.20;99.90
24148;DHT22;12309;51.450;-2.624;2023-02-17T09:03:25;11.10;99.90
24148;DHT22;12309;51.450;-2.624;2023-02-17T09:05:57;11.20;99.90
24148;DHT22;12309;51.450;-2.624;2023-02-17T09:08:23;11.20;99.90
24148;DHT22;12309;51.450;-2.624;2023-02-17T09:10:49;11.30;99.90
24148;DHT22;12309;51.450;-2.624;2023-02-17T09:13:15;11.30;99.90
24148;DHT22;12309;51.450;-2.624;2023-02-17T09:15:41;11.40;99.90
24148;DHT22;12309;51.450;-2.624;2023-02-17T09:18:07;11.40;99.90
24148;DHT22;12309;51.450;-2.624;2023-02-17T09:20:32;11.40;99.90
24148;DHT22;12309;51.450;-2.624;2023-02-17T09:22:58;11.40;99.90
24148;DHT22;12309;51.450;-2.624;2023-02-17T09:25:24;11.50;99.90
24148;DHT22;12309;51.450;-2.624;2023-02-17T09:27:50;11.50;99.90
24148;DHT22;12309;51.450;-2.624;2023-02-17T09:30:16;11.40;99.90
24148;DHT22;12309;51.450;-2.624;2023-02-17T09:32:41;11.50;99.90
24148;DHT22;12309;51.450;-2.624;2023-02-17T09:35:11;11.50;99.90
24148;DHT22;12309;51.450;-2.624;2023-02-17T09:37:36;11.50;99.90
24148;DHT22;12309;51.450;-2.624;2023-02-17T09:40:02;11.50;99.90
24148;DHT22;12309;51.450;-2.624;2023-02-17T09:42:28;11.60;99.90
24148;DHT22;12309;51.450;-2.624;2023-02-17T09:45:00;11.50;99.90
24148;DHT22;12309;51.450;-2.624;2023-02-17T09:47:34;11.50;99.90
24148;DHT22;12309;51.450;-2.624;2023-02-17T09:50:06;11.60;99.90
24148;DHT22;12309;51.450;-2.624;2023-02-17T09:52:45;11.70;99.90
24148;DHT22;12309;51.450;-2.624;2023-02-17T09:55:26;11.80;99.90
24148;DHT22;12309;51.450;-2.624;2023-02-17T09:57:57;11.90;99.90
24148;DHT22;12309;51.450;-2.624;2023-02-17T10:00:31;12.00;99.90
24148;DHT22;12309;51.450;-2.624;2023-02-17T10:03:11;11.80;99.90
24148;DHT22;12309;51.450;-2.624;2023-02-17T10:05:44;12.00;99.90
24148;DHT22;12309;51.450;-2.624;2023-02-17T10:08:17;11.70;99.90
24148;DHT22;12309;51.450;-2.624;2023-02-17T10:10:55;12.10;99.90
24148;DHT22;12309;51.450;-2.624;2023-02-17T10:13:24;12.10;99.90
24148;DHT22;12309;51.450;-2.624;2023-02-17T10:15:54;12.20;99.90
24148;DHT22;12309;51.450;-2.624;2023-02-17T10:18:32;12.10;99.90
24148;DHT22;12309;51.450;-2.624;2023-02-17T10:21:05;12.10;99.90
24148;DHT22;12309;51.450;-2.624;2023-02-17T10:23:33;12.00;99.90
24148;DHT22;12309;51.450;-2.624;2023-02-17T10:31:27;12.10;99.90
24148;DHT22;12309;51.450;-2.624;2023-02-17T10:34:02;12.30;99.90
24148;DHT22;12309;51.450;-2.624;2023-02-17T10:39:13;12.20;99.90
24148;DHT22;12309;51.450;-2.624;2023-02-17T10:41:40;12.20;99.90
24148;DHT22;12309;51.450;-2.624;2023-02-17T10:44:10;12.10;99.90
24148;DHT22;12309;51.450;-2.624;2023-02-17T10:46:40;12.20;99.90
24148;DHT22;12309;51.450;-2.624;2023-02-17T10:49:17;12.30;99.90
24148;DHT22;12309;51.450;-2.624;2023-02-17T10:51:44;12.30;99.90
24148;DHT22;12309;51.450;-2.624;2023-02-17T10:54:24;12.20;99.90
24148;DHT22;12309;51.450;-2.624;2023-02-17T10:56:53;12.10;99.90
24148;DHT22;12309;51.450;-2.624;2023-02-17T10:59:44;12.10;99.90
24148;DHT22;12309;51.450;-2.624;2023-02-17T11:02:41;12.10;99.90
24148;DHT22;12309;51.450;-2.624;2023-02-17T11:05:18;12.10;99.90
24148;DHT22;12309;51.450;-2.624;2023-02-17T11:07:44;12.20;99.90
24148;DHT22;12309;51.450;-2.624;2023-02-17T11:10:28;12.30;99.90
24148;DHT22;12309;51.450;-2.624;2023-02-17T11:12:55;12.30;99.90
24148;DHT22;12309;51.450;-2.624;2023-02-17T11:15:26;12.40;99.90
24148;DHT22;12309;51.450;-2.624;2023-02-17T11:17:52;12.30;99.90
24148;DHT22;12309;51.450;-2.624;2023-02-17T11:23:03;12.30;99.90
24148;DHT22;12309;51.450;-2.624;2023-02-17T11:25:32;12.20;99.90
24148;DHT22;12309;51.450;-2.624;2023-02-17T11:28:03;12.30;99.90
24148;DHT22;12309;51.450;-2.624;2023-02-17T11:30:31;12.60;99.90
24148;DHT22;12309;51.450;-2.624;2023-02-17T11:32:57;12.60;99.90
24148;DHT22;12309;51.450;-2.624;2023-02-17T11:35:25;12.60;99.90
24148;DHT22;12309;51.450;-2.624;2023-02-17T11:37:59;12.60;99.90
24148;DHT22;12309;51.450;-2.624;2023-02-17T11:40:31;12.60;99.90
24148;DHT22;12309;51.450;-2.624;2023-02-17T11:42:58;12.50;99.90
24148;DHT22;12309;51.450;-2.624;2023-02-17T11:45:28;12.60;99.90
24148;DHT22;12309;51.450;-2.624;2023-02-17T11:50:29;13.00;99.90
24148;DHT22;12309;51.450;-2.624;2023-02-17T11:53:19;13.00;99.90
24148;DHT22;12309;51.450;-2.624;2023-02-17T12:06:29;13.60;99.90
24148;DHT22;12309;51.450;-2.624;2023-02-17T12:16:36;13.20;99.90
24148;DHT22;12309;51.450;-2.624;2023-02-17T12:22:19;13.10;99.90
24148;DHT22;12309;51.450;-2.624;2023-02-17T12:30:34;12.90;99.90
24148;DHT22;12309;51.450;-2.624;2023-02-17T12:33:41;12.90;99.90
24148;DHT22;12309;51.450;-2.624;2023-02-17T12:36:14;13.00;99.90
24148;DHT22;12309;51.450;-2.624;2023-02-17T12:38:44;13.00;99.90
24148;DHT22;12309;51.450;-2.624;2023-02-17T12:43:50;13.10;99.90
24148;DHT22;12309;51.450;-2.624;2023-02-17T12:46:34;13.10;99.90
24148;DHT22;12309;51.450;-2.624;2023-02-17T12:49:18;13.30;99.90
24148;DHT22;12309;51.450;-2.624;2023-02-17T12:51:58;13.10;99.90
24148;DHT22;12309;51.450;-2.624;2023-02-17T12:54:27;13.10;99.90
24148;DHT22;12309;51.450;-2.624;2023-02-17T12:57:18;13.10;99.90
24148;DHT22;12309;51.450;-2.624;2023-02-17T12:59:46;13.20;99.90
24148;DHT22;12309;51.450;-2.624;2023-02-17T13:02:16;13.20;99.90
24148;DHT22;12309;51.450;-2.624;2023-02-17T13:04:44;13.20;99.90
24148;DHT22;12309;51.450;-2.624;2023-02-17T13:10:01;12.90;99.90
24148;DHT22;12309;51.450;-2.624;2023-02-17T13:14:56;12.90;99.90
24148;DHT22;12309;51.450;-2.624;2023-02-17T13:17:33;12.80;99.90
24148;DHT22;12309;51.450;-2.624;2023-02-17T13:20:25;12.70;99.90
24148;DHT22;12309;51.450;-2.624;2023-02-17T13:23:10;12.70;99.90
24148;DHT22;12309;51.450;-2.624;2023-02-17T13:25:36;12.90;99.90
24148;DHT22;12309;51.450;-2.624;2023-02-17T13:28:15;12.90;99.90
24148;DHT22;12309;51.450;-2.624;2023-02-17T13:30:43;12.80;99.90
24148;DHT22;12309;51.450;-2.624;2023-02-17T13:35:47;12.70;99.90
24148;DHT22;12309;51.450;-2.624;2023-02-17T13:38:25;12.60;99.90
24148;DHT22;12309;51.450;-2.624;2023-02-17T13:40:51;12.70;99.90
24148;DHT22;12309;51.450;-2.624;2023-02-17T13:43:18;12.50;99.90
24148;DHT22;12309;51.450;-2.624;2023-02-17T13:48:28;12.60;99.90
24148;DHT22;12309;51.450;-2.624;2023-02-17T13:50:56;12.50;99.90
24148;DHT22;12309;51.450;-2.624;2023-02-17T13:55:51;12.50;99.90
24148;DHT22;12309;51.450;-2.624;2023-02-17T13:58:28;12.50;99.90
24148;DHT22;12309;51.450;-2.624;2023-02-17T14:00:55;12.50;99.90
24148;DHT22;12309;51.450;-2.624;2023-02-17T14:06:04;12.50;99.90
24148;DHT22;12309;51.450;-2.624;2023-02-17T14:08:36;12.60;99.90
24148;DHT22;12309;51.450;-2.624;2023-02-17T14:11:08;12.50;99.90
24148;DHT22;12309;51.450;-2.624;2023-02-17T14:13:36;12.60;99.90
24148;DHT22;12309;51.450;-2.624;2023-02-17T14:16:02;12.70;99.90
24148;DHT22;12309;51.450;-2.624;2023-02-17T14:18:36;12.60;99.90
24148;DHT22;12309;51.450;-2.624;2023-02-17T14:21:24;12.50;99.90
24148;DHT22;12309;51.450;-2.624;2023-02-17T14:23:54;12.50;99.90
24148;DHT22;12309;51.450;-2.624;2023-02-17T14:26:28;12.50;99.90
24148;DHT22;12309;51.450;-2.624;2023-02-17T14:28:59;12.50;99.90
24148;DHT22;12309;51.450;-2.624;2023-02-17T14:31:27;12.40;99.90
24148;DHT22;12309;51.450;-2.624;2023-02-17T14:33:53;12.40;99.90
24148;DHT22;12309;51.450;-2.624;2023-02-17T14:36:27;12.50;99.90
24148;DHT22;12309;51.450;-2.624;2023-02-17T14:38:54;12.50;99.90
24148;DHT22;12309;51.450;-2.624;2023-02-17T14:41:20;12.40;99.90
24148;DHT22;12309;51.450;-2.624;2023-02-17T14:46:12;12.40;99.90
24148;DHT22;12309;51.450;-2.624;2023-02-17T14:48:39;12.40;99.90
24148;DHT22;12309;51.450;-2.624;2023-02-17T14:51:12;12.30;99.90
24148;DHT22;12309;51.450;-2.624;2023-02-17T14:53:38;12.20;99.90
24148;DHT22;12309;51.450;-2.624;2023-02-17T14:58:38;12.30;99.90
24148;DHT22;12309;51.450;-2.624;2023-02-17T15:01:04;12.20;99.90
24148;DHT22;12309;51.450;-2.624;2023-02-17T15:03:31;12.30;99.90
24148;DHT22;12309;51.450;-2.624;2023-02-17T15:08:32;12.30;99.90
24148;DHT22;12309;51.450;-2.624;2023-02-17T15:10:58;12.30;99.90
24148;DHT22;12309;51.450;-2.624;2023-02-17T15:13:24;12.20;99.90
24148;DHT22;12309;51.450;-2.624;2023-02-17T15:15:50;12.20;99.90
24148;DHT22;12309;51.450;-2.624;2023-02-17T15:18:18;12.20;99.90
24148;DHT22;12309;51.450;-2.624;2023-02-17T15:20:46;12.20;99.90
24148;DHT22;12309;51.450;-2.624;2023-02-17T15:23:18;12.20;99.90
24148;DHT22;12309;51.450;-2.624;2023-02-17T15:25:44;12.20;99.90
24148;DHT22;12309;51.450;-2.624;2023-02-17T15:28:15;12.20;99.90
24148;DHT22;12309;51.450;-2.624;2023-02-17T15:30:49;12.20;99.90
24148;DHT22;12309;51.450;-2.624;2023-02-17T15:33:16;12.10;99.90
24148;DHT22;12309;51.450;-2.624;2023-02-17T15:35:42;12.10;99.90
24148;DHT22;12309;51.450;-2.624;2023-02-17T15:38:12;12.10;99.90
24148;DHT22;12309;51.450;-2.624;2023-02-17T15:40:39;14.00;99.90
24148;DHT22;12309;51.450;-2.624;2023-02-17T15:43:05;11.90;99.90
24148;DHT22;12309;51.450;-2.624;2023-02-17T15:45:32;11.90;99.90
24148;DHT22;12309;51.450;-2.624;2023-02-17T15:48:21;11.90;99.90
24148;DHT22;12309;51.450;-2.624;2023-02-17T15:50:48;12.00;99.90
24148;DHT22;12309;51.450;-2.624;2023-02-17T15:53:13;12.10;99.90
24148;DHT22;12309;51.450;-2.624;2023-02-17T15:55:39;12.00;99.90
24148;DHT22;12309;51.450;-2.624;2023-02-17T15:58:09;11.90;99.90
24148;DHT22;12309;51.450;-2.624;2023-02-17T16:00:37;11.90;99.90
24148;DHT22;12309;51.450;-2.624;2023-02-17T16:03:03;11.80;99.90
24148;DHT22;12309;51.450;-2.624;2023-02-17T16:05:29;12.00;99.90
24148;DHT22;12309;51.450;-2.624;2023-02-17T16:07:55;11.70;99.90
24148;DHT22;12309;51.450;-2.624;2023-02-17T16:10:24;11.70;99.90
24148;DHT22;12309;51.450;-2.624;2023-02-17T16:12:56;11.70;99.90
24148;DHT22;12309;51.450;-2.624;2023-02-17T16:15:23;11.70;99.90
24148;DHT22;12309;51.450;-2.624;2023-02-17T16:17:50;11.70;99.90
24148;DHT22;12309;51.450;-2.624;2023-02-17T16:20:22;11.70;99.90
24148;DHT22;12309;51.450;-2.624;2023-02-17T16:22:49;11.70;99.90
24148;DHT22;12309;51.450;-2.624;2023-02-17T16:25:17;11.60;99.90
24148;DHT22;12309;51.450;-2.624;2023-02-17T16:27:44;11.60;99.90
24148;DHT22;12309;51.450;-2.624;2023-02-17T16:30:29;11.60;99.90
24148;DHT22;12309;51.450;-2.624;2023-02-17T16:32:56;11.60;99.90
24148;DHT22;12309;51.450;-2.624;2023-02-17T16:35:24;11.60;99.90
24148;DHT22;12309;51.450;-2.624;2023-02-17T16:37:59;11.60;99.90
24148;DHT22;12309;51.450;-2.624;2023-02-17T16:40:29;11.60;99.90
24148;DHT22;12309;51.450;-2.624;2023-02-17T16:42:55;11.60;99.90
24148;DHT22;12309;51.450;-2.624;2023-02-17T16:45:23;11.60;99.90
24148;DHT22;12309;51.450;-2.624;2023-02-17T16:47:56;11.50;99.90
24148;DHT22;12309;51.450;-2.624;2023-02-17T16:50:25;11.50;99.90
24148;DHT22;12309;51.450;-2.624;2023-02-17T16:53:00;11.50;99.90
24148;DHT22;12309;51.450;-2.624;2023-02-17T16:55:29;11.50;99.90
24148;DHT22;12309;51.450;-2.624;2023-02-17T16:57:56;11.50;99.90
24148;DHT22;12309;51.450;-2.624;2023-02-17T17:00:27;11.50;99.90
24148;DHT22;12309;51.450;-2.624;2023-02-17T17:02:54;11.50;99.90
24148;DHT22;12309;51.450;-2.624;2023-02-17T17:05:22;11.40;99.90